sensor_id;sensor_type;location;lat;lon;timestamp;P1;durP1;ratioP1;P2;durP2;ratioP2
55718;SDS011;41623;46.104;19.656;2023-01-26T00:00:42;10.45;;;3.88;;
55718;SDS011;41623;46.104;19.656;2023-01-26T00:03:08;4.90;;;3.17;;
55718;SDS011;41623;46.104;19.656;2023-01-26T00:05:37;5.68;;;2.88;;
55718;SDS011;41623;46.104;19.656;2023-01-26T00:08:04;9.65;;;4.35;;
55718;SDS011;41623;46.104;19.656;2023-01-26T00:10:30;6.00;;;3.83;;
55718;SDS011;41623;46.104;19.656;2023-01-26T00:12:56;7.20;;;3.88;;
55718;SDS011;41623;46.104;19.656;2023-01-26T00:15:22;6.05;;;3.50;;
55718;SDS011;41623;46.104;19.656;2023-01-26T00:17:48;9.82;;;4.55;;
55718;SDS011;41623;46.104;19.656;2023-01-26T00:20:17;8.30;;;3.80;;
55718;SDS011;41623;46.104;19.656;2023-01-26T00:22:43;10.02;;;5.03;;
55718;SDS011;41623;46.104;19.656;2023-01-26T00:25:09;5.78;;;3.45;;
55718;SDS011;41623;46.104;19.656;2023-01-26T00:27:35;3.40;;;2.67;;
55718;SDS011;41623;46.104;19.656;2023-01-26T00:30:02;4.15;;;2.72;;
55718;SDS011;41623;46.104;19.656;2023-01-26T00:32:28;2.97;;;2.50;;
55718;SDS011;41623;46.104;19.656;2023-01-26T00:34:54;8.32;;;3.13;;
55718;SDS011;41623;46.104;19.656;2023-01-26T00:37:20;9.07;;;4.15;;
55718;SDS011;41623;46.104;19.656;2023-01-26T00:39:46;9.98;;;4.13;;
55718;SDS011;41623;46.104;19.656;2023-01-26T00:42:12;8.02;;;4.53;;
55718;SDS011;41623;46.104;19.656;2023-01-26T00:44:40;7.38;;;3.65;;
55718;SDS011;41623;46.104;19.656;2023-01-26T00:47:07;13.32;;;3.80;;
55718;SDS011;41623;46.104;19.656;2023-01-26T00:49:35;9.43;;;4.63;;
55718;SDS011;41623;46.104;19.656;2023-01-26T00:52:01;14.73;;;4.32;;
55718;SDS011;41623;46.104;19.656;2023-01-26T00:54:28;9.52;;;4.55;;
55718;SDS011;41623;46.104;19.656;2023-01-26T00:56:54;11.75;;;5.18;;
55718;SDS011;41623;46.104;19.656;2023-01-26T00:59:20;11.32;;;4.38;;
55718;SDS011;41623;46.104;19.656;2023-01-26T01:01:47;12.93;;;3.90;;
55718;SDS011;41623;46.104;19.656;2023-01-26T01:04:13;11.15;;;4.80;;
55718;SDS011;41623;46.104;19.656;2023-01-26T01:06:39;4.68;;;3.70;;
55718;SDS011;41623;46.104;19.656;2023-01-26T01:09:06;7.40;;;3.92;;
55718;SDS011;41623;46.104;19.656;2023-01-26T01:11:32;5.55;;;3.53;;
55718;SDS011;41623;46.104;19.656;2023-01-26T01:13:58;11.10;;;4.90;;
55718;SDS011;41623;46.104;19.656;2023-01-26T01:16:24;5.15;;;3.58;;
55718;SDS011;41623;46.104;19.656;2023-01-26T01:18:52;10.10;;;3.55;;
55718;SDS011;41623;46.104;19.656;2023-01-26T01:21:19;9.10;;;4.38;;
55718;SDS011;41623;46.104;19.656;2023-01-26T01:23:45;7.82;;;4.40;;
55718;SDS011;41623;46.104;19.656;2023-01-26T01:26:11;7.40;;;4.32;;
55718;SDS011;41623;46.104;19.656;2023-01-26T01:28:37;5.03;;;2.60;;
55718;SDS011;41623;46.104;19.656;2023-01-26T01:31:07;7.97;;;3.10;;
55718;SDS011;41623;46.104;19.656;2023-01-26T01:33:34;7.03;;;2.25;;
55718;SDS011;41623;46.104;19.656;2023-01-26T01:36:01;8.15;;;4.05;;
55718;SDS011;41623;46.104;19.656;2023-01-26T01:38:28;5.18;;;3.08;;
55718;SDS011;41623;46.104;19.656;2023-01-26T01:40:54;10.93;;;3.92;;
55718;SDS011;41623;46.104;19.656;2023-01-26T01:43:21;3.42;;;3.13;;
55718;SDS011;41623;46.104;19.656;2023-01-26T01:45:47;10.52;;;4.38;;
55718;SDS011;41623;46.104;19.656;2023-01-26T01:48:16;4.53;;;3.17;;
55718;SDS011;41623;46.104;19.656;2023-01-26T01:50:44;5.40;;;3.17;;
55718;SDS011;41623;46.104;19.656;2023-01-26T01:53:12;3.72;;;2.72;;
55718;SDS011;41623;46.104;19.656;2023-01-26T01:55:39;7.70;;;3.67;;
55718;SDS011;41623;46.104;19.656;2023-01-26T01:58:05;6.93;;;3.15;;
55718;SDS011;41623;46.104;19.656;2023-01-26T02:00:32;11.45;;;5.28;;
55718;SDS011;41623;46.104;19.656;2023-01-26T02:03:03;4.63;;;2.63;;
55718;SDS011;41623;46.104;19.656;2023-01-26T02:08:10;2.78;;;2.45;;
55718;SDS011;41623;46.104;19.656;2023-01-26T02:10:39;5.03;;;2.50;;
55718;SDS011;41623;46.104;19.656;2023-01-26T02:13:05;8.23;;;3.50;;
55718;SDS011;41623;46.104;19.656;2023-01-26T02:15:32;2.00;;;1.77;;
55718;SDS011;41623;46.104;19.656;2023-01-26T02:17:59;7.72;;;2.88;;
55718;SDS011;41623;46.104;19.656;2023-01-26T02:27:51;3.17;;;1.95;;
55718;SDS011;41623;46.104;19.656;2023-01-26T02:30:18;10.40;;;3.10;;
55718;SDS011;41623;46.104;19.656;2023-01-26T02:32:45;9.02;;;4.32;;
55718;SDS011;41623;46.104;19.656;2023-01-26T02:35:11;3.95;;;2.75;;
55718;SDS011;41623;46.104;19.656;2023-01-26T02:37:37;3.00;;;2.50;;
55718;SDS011;41623;46.104;19.656;2023-01-26T02:40:08;2.47;;;1.75;;
55718;SDS011;41623;46.104;19.656;2023-01-26T02:45:04;2.00;;;1.30;;
55718;SDS011;41623;46.104;19.656;2023-01-26T02:47:30;4.70;;;2.28;;
55718;SDS011;41623;46.104;19.656;2023-01-26T02:49:56;4.65;;;2.63;;
55718;SDS011;41623;46.104;19.656;2023-01-26T02:52:24;3.70;;;2.75;;
55718;SDS011;41623;46.104;19.656;2023-01-26T02:54:51;6.05;;;2.92;;
55718;SDS011;41623;46.104;19.656;2023-01-26T02:57:36;7.63;;;2.95;;
55718;SDS011;41623;46.104;19.656;2023-01-26T03:00:07;4.50;;;2.95;;
55718;SDS011;41623;46.104;19.656;2023-01-26T03:02:34;10.35;;;2.88;;
55718;SDS011;41623;46.104;19.656;2023-01-26T03:05:02;4.25;;;2.75;;
55718;SDS011;41623;46.104;19.656;2023-01-26T03:07:29;6.90;;;3.30;;
55718;SDS011;41623;46.104;19.656;2023-01-26T03:09:55;4.38;;;2.30;;
55718;SDS011;41623;46.104;19.656;2023-01-26T03:12:22;2.40;;;2.00;;
55718;SDS011;41623;46.104;19.656;2023-01-26T03:14:48;2.95;;;2.20;;
55718;SDS011;41623;46.104;19.656;2023-01-26T03:17:35;4.93;;;2.42;;
55718;SDS011;41623;46.104;19.656;2023-01-26T03:20:01;3.50;;;2.30;;
55718;SDS011;41623;46.104;19.656;2023-01-26T03:22:51;4.20;;;2.95;;
55718;SDS011;41623;46.104;19.656;2023-01-26T03:25:36;3.35;;;2.30;;
55718;SDS011;41623;46.104;19.656;2023-01-26T03:28:21;4.80;;;1.73;;
55718;SDS011;41623;46.104;19.656;2023-01-26T03:30:47;2.40;;;1.80;;
55718;SDS011;41623;46.104;19.656;2023-01-26T03:33:14;2.95;;;2.10;;
55718;SDS011;41623;46.104;19.656;2023-01-26T03:35:40;8.50;;;3.38;;
55718;SDS011;41623;46.104;19.656;2023-01-26T03:38:07;2.75;;;2.47;;
55718;SDS011;41623;46.104;19.656;2023-01-26T03:40:33;4.40;;;2.42;;
55718;SDS011;41623;46.104;19.656;2023-01-26T03:43:17;9.30;;;3.25;;
55718;SDS011;41623;46.104;19.656;2023-01-26T03:46:03;6.82;;;2.47;;
55718;SDS011;41623;46.104;19.656;2023-01-26T03:48:47;2.75;;;2.25;;
55718;SDS011;41623;46.104;19.656;2023-01-26T03:51:32;2.22;;;1.88;;
55718;SDS011;41623;46.104;19.656;2023-01-26T03:54:16;2.35;;;1.63;;
55718;SDS011;41623;46.104;19.656;2023-01-26T03:57:01;1.95;;;1.63;;
55718;SDS011;41623;46.104;19.656;2023-01-26T03:59:27;4.28;;;2.55;;
55718;SDS011;41623;46.104;19.656;2023-01-26T04:02:02;9.10;;;2.72;;
55718;SDS011;41623;46.104;19.656;2023-01-26T04:04:48;3.03;;;2.00;;
55718;SDS011;41623;46.104;19.656;2023-01-26T04:07:32;5.47;;;2.65;;
55718;SDS011;41623;46.104;19.656;2023-01-26T04:10:17;6.20;;;2.42;;
55718;SDS011;41623;46.104;19.656;2023-01-26T04:12:44;4.60;;;2.67;;
55718;SDS011;41623;46.104;19.656;2023-01-26T04:15:29;2.92;;;1.90;;
55718;SDS011;41623;46.104;19.656;2023-01-26T04:18:14;2.25;;;1.90;;
55718;SDS011;41623;46.104;19.656;2023-01-26T04:21:00;2.88;;;2.38;;
55718;SDS011;41623;46.104;19.656;2023-01-26T04:23:45;3.03;;;1.80;;
55718;SDS011;41623;46.104;19.656;2023-01-26T04:26:11;7.07;;;2.45;;
55718;SDS011;41623;46.104;19.656;2023-01-26T04:28:38;3.17;;;1.35;;
55718;SDS011;41623;46.104;19.656;2023-01-26T04:31:04;1.90;;;1.65;;
55718;SDS011;41623;46.104;19.656;2023-01-26T04:33:30;1.95;;;1.60;;
55718;SDS011;41623;46.104;19.656;2023-01-26T04:36:00;3.10;;;1.98;;
55718;SDS011;41623;46.104;19.656;2023-01-26T04:38:26;4.15;;;2.22;;
55718;SDS011;41623;46.104;19.656;2023-01-26T04:40:53;1.35;;;1.25;;
55718;SDS011;41623;46.104;19.656;2023-01-26T04:43:19;1.00;;;1.00;;
55718;SDS011;41623;46.104;19.656;2023-01-26T04:45:56;4.88;;;1.67;;
55718;SDS011;41623;46.104;19.656;2023-01-26T04:48:23;1.55;;;1.30;;
55718;SDS011;41623;46.104;19.656;2023-01-26T04:50:55;5.03;;;1.92;;
55718;SDS011;41623;46.104;19.656;2023-01-26T04:53:22;3.10;;;2.20;;
55718;SDS011;41623;46.104;19.656;2023-01-26T04:55:48;2.35;;;1.55;;
55718;SDS011;41623;46.104;19.656;2023-01-26T04:58:14;3.20;;;2.33;;
55718;SDS011;41623;46.104;19.656;2023-01-26T05:00:40;1.92;;;1.75;;
55718;SDS011;41623;46.104;19.656;2023-01-26T05:03:06;1.55;;;1.23;;
55718;SDS011;41623;46.104;19.656;2023-01-26T05:05:35;1.40;;;1.35;;
55718;SDS011;41623;46.104;19.656;2023-01-26T05:08:02;2.30;;;1.45;;
55718;SDS011;41623;46.104;19.656;2023-01-26T05:10:28;1.55;;;1.35;;
55718;SDS011;41623;46.104;19.656;2023-01-26T05:12:54;3.22;;;2.08;;
55718;SDS011;41623;46.104;19.656;2023-01-26T05:15:20;2.40;;;1.50;;
55718;SDS011;41623;46.104;19.656;2023-01-26T05:17:47;0.88;;;0.88;;
55718;SDS011;41623;46.104;19.656;2023-01-26T05:20:13;1.35;;;1.25;;
55718;SDS011;41623;46.104;19.656;2023-01-26T05:22:39;1.65;;;1.55;;
55718;SDS011;41623;46.104;19.656;2023-01-26T05:25:05;1.90;;;1.58;;
55718;SDS011;41623;46.104;19.656;2023-01-26T05:27:32;1.40;;;1.33;;
55718;SDS011;41623;46.104;19.656;2023-01-26T05:29:58;4.47;;;1.40;;
55718;SDS011;41623;46.104;19.656;2023-01-26T05:32:28;2.28;;;1.63;;
55718;SDS011;41623;46.104;19.656;2023-01-26T05:34:54;1.13;;;1.13;;
55718;SDS011;41623;46.104;19.656;2023-01-26T05:37:21;1.25;;;1.17;;
55718;SDS011;41623;46.104;19.656;2023-01-26T05:39:48;1.85;;;1.58;;
55718;SDS011;41623;46.104;19.656;2023-01-26T05:42:15;4.63;;;2.17;;
55718;SDS011;41623;46.104;19.656;2023-01-26T05:44:41;3.35;;;2.30;;
55718;SDS011;41623;46.104;19.656;2023-01-26T05:47:07;1.95;;;1.75;;
55718;SDS011;41623;46.104;19.656;2023-01-26T05:49:34;1.73;;;1.63;;
55718;SDS011;41623;46.104;19.656;2023-01-26T05:52:06;2.95;;;1.70;;
55718;SDS011;41623;46.104;19.656;2023-01-26T05:54:33;4.00;;;2.38;;
55718;SDS011;41623;46.104;19.656;2023-01-26T05:56:59;2.97;;;1.98;;
55718;SDS011;41623;46.104;19.656;2023-01-26T05:59:25;2.13;;;1.90;;
55718;SDS011;41623;46.104;19.656;2023-01-26T06:01:51;2.13;;;1.63;;
55718;SDS011;41623;46.104;19.656;2023-01-26T06:04:17;1.58;;;1.48;;
55718;SDS011;41623;46.104;19.656;2023-01-26T06:06:43;5.38;;;1.67;;
55718;SDS011;41623;46.104;19.656;2023-01-26T06:09:09;2.80;;;1.80;;
55718;SDS011;41623;46.104;19.656;2023-01-26T06:11:35;3.05;;;2.15;;
55718;SDS011;41623;46.104;19.656;2023-01-26T06:14:02;5.57;;;3.00;;
55718;SDS011;41623;46.104;19.656;2023-01-26T06:16:28;4.50;;;3.13;;
55718;SDS011;41623;46.104;19.656;2023-01-26T06:18:54;3.70;;;2.60;;
55718;SDS011;41623;46.104;19.656;2023-01-26T06:21:20;3.65;;;2.15;;
55718;SDS011;41623;46.104;19.656;2023-01-26T06:23:46;5.13;;;1.92;;
55718;SDS011;41623;46.104;19.656;2023-01-26T06:26:12;3.95;;;2.17;;
55718;SDS011;41623;46.104;19.656;2023-01-26T06:28:39;3.33;;;2.45;;
55718;SDS011;41623;46.104;19.656;2023-01-26T06:31:05;4.15;;;2.28;;
55718;SDS011;41623;46.104;19.656;2023-01-26T06:33:32;2.60;;;1.83;;
55718;SDS011;41623;46.104;19.656;2023-01-26T06:36:02;8.55;;;3.05;;
55718;SDS011;41623;46.104;19.656;2023-01-26T06:38:29;5.88;;;3.30;;
55718;SDS011;41623;46.104;19.656;2023-01-26T06:40:59;8.63;;;2.78;;
55718;SDS011;41623;46.104;19.656;2023-01-26T06:43:27;3.65;;;2.53;;
55718;SDS011;41623;46.104;19.656;2023-01-26T06:45:56;4.57;;;3.25;;
55718;SDS011;41623;46.104;19.656;2023-01-26T06:48:26;6.57;;;2.95;;
55718;SDS011;41623;46.104;19.656;2023-01-26T06:50:55;7.50;;;3.58;;
55718;SDS011;41623;46.104;19.656;2023-01-26T06:55:51;8.10;;;4.30;;
55718;SDS011;41623;46.104;19.656;2023-01-26T06:58:17;10.15;;;4.50;;
55718;SDS011;41623;46.104;19.656;2023-01-26T07:00:43;4.25;;;3.35;;
55718;SDS011;41623;46.104;19.656;2023-01-26T07:03:09;10.40;;;5.57;;
55718;SDS011;41623;46.104;19.656;2023-01-26T07:05:35;11.57;;;4.95;;
55718;SDS011;41623;46.104;19.656;2023-01-26T07:08:01;7.55;;;3.60;;
55718;SDS011;41623;46.104;19.656;2023-01-26T07:10:30;4.93;;;3.75;;
55718;SDS011;41623;46.104;19.656;2023-01-26T07:12:56;7.53;;;4.45;;
55718;SDS011;41623;46.104;19.656;2023-01-26T07:15:22;5.88;;;3.33;;
55718;SDS011;41623;46.104;19.656;2023-01-26T07:17:48;25.50;;;9.27;;
55718;SDS011;41623;46.104;19.656;2023-01-26T07:20:15;10.85;;;5.30;;
55718;SDS011;41623;46.104;19.656;2023-01-26T07:22:41;14.55;;;4.28;;
55718;SDS011;41623;46.104;19.656;2023-01-26T07:25:07;16.42;;;6.13;;
55718;SDS011;41623;46.104;19.656;2023-01-26T07:27:33;8.40;;;3.90;;
55718;SDS011;41623;46.104;19.656;2023-01-26T07:29:59;13.27;;;4.38;;
55718;SDS011;41623;46.104;19.656;2023-01-26T07:32:25;8.05;;;4.60;;
55718;SDS011;41623;46.104;19.656;2023-01-26T07:34:51;7.72;;;3.28;;
55718;SDS011;41623;46.104;19.656;2023-01-26T07:37:17;15.23;;;4.00;;
55718;SDS011;41623;46.104;19.656;2023-01-26T07:39:43;3.83;;;2.28;;
55718;SDS011;41623;46.104;19.656;2023-01-26T07:42:09;8.68;;;4.40;;
55718;SDS011;41623;46.104;19.656;2023-01-26T07:44:37;9.93;;;3.70;;
55718;SDS011;41623;46.104;19.656;2023-01-26T07:47:03;8.38;;;3.40;;
55718;SDS011;41623;46.104;19.656;2023-01-26T07:49:29;6.80;;;4.03;;
55718;SDS011;41623;46.104;19.656;2023-01-26T07:51:56;9.00;;;3.88;;
55718;SDS011;41623;46.104;19.656;2023-01-26T07:54:22;7.93;;;4.03;;
55718;SDS011;41623;46.104;19.656;2023-01-26T07:56:52;8.68;;;4.15;;
55718;SDS011;41623;46.104;19.656;2023-01-26T07:59:19;7.53;;;3.92;;
55718;SDS011;41623;46.104;19.656;2023-01-26T08:01:45;10.13;;;4.10;;
55718;SDS011;41623;46.104;19.656;2023-01-26T08:04:11;5.82;;;2.97;;
55718;SDS011;41623;46.104;19.656;2023-01-26T08:06:37;5.50;;;2.88;;
55718;SDS011;41623;46.104;19.656;2023-01-26T08:09:03;6.43;;;3.53;;
55718;SDS011;41623;46.104;19.656;2023-01-26T08:11:29;5.97;;;3.15;;
55718;SDS011;41623;46.104;19.656;2023-01-26T08:13:55;7.63;;;4.25;;
55718;SDS011;41623;46.104;19.656;2023-01-26T08:16:21;7.93;;;2.90;;
55718;SDS011;41623;46.104;19.656;2023-01-26T08:18:47;4.70;;;2.33;;
55718;SDS011;41623;46.104;19.656;2023-01-26T08:21:14;8.93;;;4.07;;
55718;SDS011;41623;46.104;19.656;2023-01-26T08:23:41;5.75;;;3.10;;
55718;SDS011;41623;46.104;19.656;2023-01-26T08:26:11;3.25;;;2.50;;
55718;SDS011;41623;46.104;19.656;2023-01-26T08:28:39;10.15;;;2.20;;
55718;SDS011;41623;46.104;19.656;2023-01-26T08:31:06;3.20;;;2.40;;
55718;SDS011;41623;46.104;19.656;2023-01-26T08:33:33;8.35;;;3.42;;
55718;SDS011;41623;46.104;19.656;2023-01-26T08:36:05;9.57;;;4.03;;
55718;SDS011;41623;46.104;19.656;2023-01-26T08:38:32;4.60;;;3.28;;
55718;SDS011;41623;46.104;19.656;2023-01-26T08:40:59;6.32;;;3.70;;
55718;SDS011;41623;46.104;19.656;2023-01-26T08:43:25;3.08;;;2.38;;
55718;SDS011;41623;46.104;19.656;2023-01-26T08:45:52;5.70;;;2.63;;
55718;SDS011;41623;46.104;19.656;2023-01-26T08:48:21;3.55;;;2.70;;
55718;SDS011;41623;46.104;19.656;2023-01-26T08:50:47;3.58;;;2.22;;
55718;SDS011;41623;46.104;19.656;2023-01-26T08:53:13;7.97;;;3.63;;
55718;SDS011;41623;46.104;19.656;2023-01-26T08:55:39;3.63;;;2.03;;
55718;SDS011;41623;46.104;19.656;2023-01-26T08:58:05;5.95;;;1.55;;
55718;SDS011;41623;46.104;19.656;2023-01-26T09:00:31;5.95;;;2.55;;
55718;SDS011;41623;46.104;19.656;2023-01-26T09:02:58;4.30;;;2.70;;
55718;SDS011;41623;46.104;19.656;2023-01-26T09:05:25;6.68;;;2.75;;
55718;SDS011;41623;46.104;19.656;2023-01-26T09:07:52;11.45;;;3.17;;
55718;SDS011;41623;46.104;19.656;2023-01-26T09:10:18;8.38;;;3.35;;
55718;SDS011;41623;46.104;19.656;2023-01-26T09:12:44;4.03;;;2.72;;
55718;SDS011;41623;46.104;19.656;2023-01-26T09:15:10;4.50;;;2.80;;
55718;SDS011;41623;46.104;19.656;2023-01-26T09:17:36;4.00;;;1.80;;
55718;SDS011;41623;46.104;19.656;2023-01-26T09:20:03;2.08;;;1.60;;
55718;SDS011;41623;46.104;19.656;2023-01-26T09:22:29;2.67;;;2.10;;
55718;SDS011;41623;46.104;19.656;2023-01-26T09:24:55;3.63;;;2.35;;
55718;SDS011;41623;46.104;19.656;2023-01-26T09:27:22;3.22;;;2.17;;
55718;SDS011;41623;46.104;19.656;2023-01-26T09:29:48;8.73;;;2.33;;
55718;SDS011;41623;46.104;19.656;2023-01-26T09:32:14;5.70;;;2.15;;
55718;SDS011;41623;46.104;19.656;2023-01-26T09:34:40;6.72;;;3.00;;
55718;SDS011;41623;46.104;19.656;2023-01-26T09:37:06;2.55;;;1.83;;
55718;SDS011;41623;46.104;19.656;2023-01-26T09:39:32;2.65;;;1.80;;
55718;SDS011;41623;46.104;19.656;2023-01-26T09:55:11;7.03;;;3.00;;
55718;SDS011;41623;46.104;19.656;2023-01-26T10:00:16;7.25;;;3.83;;
55718;SDS011;41623;46.104;19.656;2023-01-26T10:05:18;3.78;;;2.75;;
55718;SDS011;41623;46.104;19.656;2023-01-26T10:07:45;3.70;;;3.08;;
55718;SDS011;41623;46.104;19.656;2023-01-26T10:10:47;8.57;;;2.40;;
55718;SDS011;41623;46.104;19.656;2023-01-26T10:13:04;2.25;;;1.70;;
55718;SDS011;41623;46.104;19.656;2023-01-26T10:15:32;1.77;;;1.55;;
55718;SDS011;41623;46.104;19.656;2023-01-26T10:18:04;5.03;;;2.70;;
55718;SDS011;41623;46.104;19.656;2023-01-26T10:20:33;2.00;;;1.52;;
55718;SDS011;41623;46.104;19.656;2023-01-26T10:23:01;1.25;;;1.15;;
55718;SDS011;41623;46.104;19.656;2023-01-26T10:25:32;1.70;;;1.42;;
55718;SDS011;41623;46.104;19.656;2023-01-26T10:28:00;3.97;;;1.80;;
55718;SDS011;41623;46.104;19.656;2023-01-26T10:30:27;4.55;;;2.60;;
55718;SDS011;41623;46.104;19.656;2023-01-26T10:32:53;2.55;;;2.08;;
55718;SDS011;41623;46.104;19.656;2023-01-26T10:35:20;2.17;;;1.67;;
55718;SDS011;41623;46.104;19.656;2023-01-26T10:37:46;2.67;;;1.60;;
55718;SDS011;41623;46.104;19.656;2023-01-26T10:40:13;2.65;;;1.90;;
55718;SDS011;41623;46.104;19.656;2023-01-26T10:42:39;2.92;;;1.90;;
55718;SDS011;41623;46.104;19.656;2023-01-26T10:45:22;1.00;;;1.00;;
55718;SDS011;41623;46.104;19.656;2023-01-26T10:48:01;3.58;;;1.70;;
55718;SDS011;41623;46.104;19.656;2023-01-26T10:50:27;3.25;;;2.28;;
55718;SDS011;41623;46.104;19.656;2023-01-26T10:53:00;4.38;;;2.30;;
55718;SDS011;41623;46.104;19.656;2023-01-26T10:55:28;1.38;;;1.33;;
55718;SDS011;41623;46.104;19.656;2023-01-26T10:57:55;1.05;;;1.02;;
55718;SDS011;41623;46.104;19.656;2023-01-26T11:02:54;5.35;;;2.30;;
55718;SDS011;41623;46.104;19.656;2023-01-26T11:05:22;2.63;;;1.83;;
55718;SDS011;41623;46.104;19.656;2023-01-26T11:07:52;3.78;;;2.35;;
55718;SDS011;41623;46.104;19.656;2023-01-26T11:21:12;2.47;;;2.28;;
55718;SDS011;41623;46.104;19.656;2023-01-26T11:26:21;2.75;;;2.22;;
55718;SDS011;41623;46.104;19.656;2023-01-26T11:54:54;1.38;;;1.27;;
55718;SDS011;41623;46.104;19.656;2023-01-26T11:57:23;1.80;;;1.40;;
55718;SDS011;41623;46.104;19.656;2023-01-26T12:02:40;3.55;;;1.65;;
55718;SDS011;41623;46.104;19.656;2023-01-26T12:05:15;7.03;;;2.22;;
55718;SDS011;41623;46.104;19.656;2023-01-26T12:07:58;3.50;;;1.92;;
55718;SDS011;41623;46.104;19.656;2023-01-26T12:10:31;2.03;;;1.63;;
55718;SDS011;41623;46.104;19.656;2023-01-26T12:13:09;3.50;;;2.30;;
55718;SDS011;41623;46.104;19.656;2023-01-26T12:15:37;4.03;;;2.05;;
55718;SDS011;41623;46.104;19.656;2023-01-26T12:18:07;2.38;;;1.90;;
55718;SDS011;41623;46.104;19.656;2023-01-26T12:25:48;2.67;;;1.80;;
55718;SDS011;41623;46.104;19.656;2023-01-26T12:28:34;1.45;;;1.35;;
55718;SDS011;41623;46.104;19.656;2023-01-26T12:33:32;1.55;;;1.45;;
55718;SDS011;41623;46.104;19.656;2023-01-26T12:38:47;3.03;;;2.05;;
55718;SDS011;41623;46.104;19.656;2023-01-26T12:41:17;1.27;;;1.17;;
55718;SDS011;41623;46.104;19.656;2023-01-26T12:46:25;2.53;;;1.88;;
55718;SDS011;41623;46.104;19.656;2023-01-26T12:48:54;2.65;;;1.75;;
55718;SDS011;41623;46.104;19.656;2023-01-26T12:51:22;2.00;;;1.63;;
55718;SDS011;41623;46.104;19.656;2023-01-26T12:56:24;2.00;;;1.77;;
55718;SDS011;41623;46.104;19.656;2023-01-26T12:58:52;4.50;;;2.47;;
55718;SDS011;41623;46.104;19.656;2023-01-26T13:01:22;3.78;;;2.47;;
55718;SDS011;41623;46.104;19.656;2023-01-26T13:03:54;6.22;;;2.90;;
55718;SDS011;41623;46.104;19.656;2023-01-26T13:06:21;2.05;;;1.42;;
55718;SDS011;41623;46.104;19.656;2023-01-26T13:14:18;1.42;;;1.27;;
55718;SDS011;41623;46.104;19.656;2023-01-26T13:16:48;2.15;;;1.40;;
55718;SDS011;41623;46.104;19.656;2023-01-26T13:21:58;3.17;;;2.28;;
55718;SDS011;41623;46.104;19.656;2023-01-26T13:31:57;2.40;;;1.55;;
55718;SDS011;41623;46.104;19.656;2023-01-26T13:36:53;1.10;;;1.10;;
55718;SDS011;41623;46.104;19.656;2023-01-26T13:39:27;1.45;;;1.33;;
55718;SDS011;41623;46.104;19.656;2023-01-26T13:41:54;1.58;;;1.08;;
55718;SDS011;41623;46.104;19.656;2023-01-26T13:44:22;0.90;;;0.90;;
55718;SDS011;41623;46.104;19.656;2023-01-26T13:46:59;1.48;;;1.25;;
55718;SDS011;41623;46.104;19.656;2023-01-26T13:49:35;3.22;;;2.28;;
55718;SDS011;41623;46.104;19.656;2023-01-26T13:52:02;4.50;;;2.45;;
55718;SDS011;41623;46.104;19.656;2023-01-26T13:54:29;6.63;;;2.80;;
55718;SDS011;41623;46.104;19.656;2023-01-26T13:57:00;6.15;;;3.17;;
55718;SDS011;41623;46.104;19.656;2023-01-26T13:59:26;4.93;;;2.72;;
55718;SDS011;41623;46.104;19.656;2023-01-26T14:01:54;3.85;;;2.38;;
55718;SDS011;41623;46.104;19.656;2023-01-26T14:04:30;3.45;;;2.83;;
55718;SDS011;41623;46.104;19.656;2023-01-26T14:07:06;5.20;;;2.67;;
55718;SDS011;41623;46.104;19.656;2023-01-26T14:09:39;3.83;;;2.83;;
55718;SDS011;41623;46.104;19.656;2023-01-26T14:12:05;3.13;;;2.17;;
55718;SDS011;41623;46.104;19.656;2023-01-26T14:14:33;2.17;;;1.88;;
55718;SDS011;41623;46.104;19.656;2023-01-26T14:17:00;9.57;;;2.42;;
55718;SDS011;41623;46.104;19.656;2023-01-26T14:19:30;4.43;;;2.45;;
55718;SDS011;41623;46.104;19.656;2023-01-26T14:21:57;2.80;;;1.98;;
55718;SDS011;41623;46.104;19.656;2023-01-26T14:24:34;7.03;;;2.42;;
55718;SDS011;41623;46.104;19.656;2023-01-26T14:27:03;3.58;;;2.38;;
55718;SDS011;41623;46.104;19.656;2023-01-26T14:29:35;5.43;;;2.25;;
55718;SDS011;41623;46.104;19.656;2023-01-26T14:32:01;4.22;;;2.22;;
55718;SDS011;41623;46.104;19.656;2023-01-26T14:34:28;4.15;;;2.40;;
55718;SDS011;41623;46.104;19.656;2023-01-26T14:37:11;5.53;;;2.97;;
55718;SDS011;41623;46.104;19.656;2023-01-26T14:39:38;5.25;;;2.65;;
55718;SDS011;41623;46.104;19.656;2023-01-26T14:42:04;5.38;;;2.40;;
55718;SDS011;41623;46.104;19.656;2023-01-26T14:44:30;4.70;;;2.78;;
55718;SDS011;41623;46.104;19.656;2023-01-26T14:47:13;8.27;;;2.97;;
55718;SDS011;41623;46.104;19.656;2023-01-26T14:49:46;3.75;;;2.45;;
55718;SDS011;41623;46.104;19.656;2023-01-26T14:54:42;1.92;;;1.80;;
55718;SDS011;41623;46.104;19.656;2023-01-26T14:57:10;7.38;;;3.03;;
55718;SDS011;41623;46.104;19.656;2023-01-26T14:59:38;6.13;;;3.08;;
55718;SDS011;41623;46.104;19.656;2023-01-26T15:02:16;8.98;;;2.92;;
55718;SDS011;41623;46.104;19.656;2023-01-26T15:04:44;5.03;;;2.90;;
55718;SDS011;41623;46.104;19.656;2023-01-26T15:09:57;4.93;;;2.88;;
55718;SDS011;41623;46.104;19.656;2023-01-26T15:12:23;7.70;;;3.30;;
55718;SDS011;41623;46.104;19.656;2023-01-26T15:14:58;11.30;;;4.10;;
55718;SDS011;41623;46.104;19.656;2023-01-26T15:17:38;11.63;;;4.88;;
55718;SDS011;41623;46.104;19.656;2023-01-26T15:22:40;13.10;;;5.70;;
55718;SDS011;41623;46.104;19.656;2023-01-26T15:27:43;5.97;;;3.53;;
55718;SDS011;41623;46.104;19.656;2023-01-26T15:30:15;8.68;;;3.55;;
55718;SDS011;41623;46.104;19.656;2023-01-26T15:32:41;9.90;;;4.32;;
55718;SDS011;41623;46.104;19.656;2023-01-26T15:37:43;6.85;;;3.47;;
55718;SDS011;41623;46.104;19.656;2023-01-26T15:40:09;10.25;;;4.97;;
55718;SDS011;41623;46.104;19.656;2023-01-26T15:42:36;11.00;;;4.20;;
55718;SDS011;41623;46.104;19.656;2023-01-26T15:45:02;7.15;;;4.15;;
55718;SDS011;41623;46.104;19.656;2023-01-26T15:47:28;7.70;;;3.75;;
55718;SDS011;41623;46.104;19.656;2023-01-26T15:49:54;3.15;;;2.53;;
55718;SDS011;41623;46.104;19.656;2023-01-26T15:52:22;9.77;;;3.03;;
55718;SDS011;41623;46.104;19.656;2023-01-26T15:54:49;6.18;;;3.72;;
55718;SDS011;41623;46.104;19.656;2023-01-26T15:57:16;7.32;;;3.50;;
55718;SDS011;41623;46.104;19.656;2023-01-26T15:59:42;4.95;;;2.97;;
55718;SDS011;41623;46.104;19.656;2023-01-26T16:02:20;8.63;;;3.80;;
55718;SDS011;41623;46.104;19.656;2023-01-26T16:04:46;5.50;;;3.33;;
55718;SDS011;41623;46.104;19.656;2023-01-26T16:07:13;5.30;;;2.53;;
55718;SDS011;41623;46.104;19.656;2023-01-26T16:09:39;5.68;;;3.47;;
55718;SDS011;41623;46.104;19.656;2023-01-26T16:12:25;8.68;;;3.65;;
55718;SDS011;41623;46.104;19.656;2023-01-26T16:14:51;4.78;;;3.38;;
55718;SDS011;41623;46.104;19.656;2023-01-26T16:17:17;11.27;;;4.57;;
55718;SDS011;41623;46.104;19.656;2023-01-26T16:19:43;10.40;;;6.03;;
55718;SDS011;41623;46.104;19.656;2023-01-26T16:22:09;14.77;;;6.43;;
55718;SDS011;41623;46.104;19.656;2023-01-26T16:24:36;14.75;;;6.63;;
55718;SDS011;41623;46.104;19.656;2023-01-26T16:27:03;24.27;;;6.05;;
55718;SDS011;41623;46.104;19.656;2023-01-26T16:29:29;15.00;;;4.88;;
55718;SDS011;41623;46.104;19.656;2023-01-26T16:31:56;10.52;;;6.38;;
55718;SDS011;41623;46.104;19.656;2023-01-26T16:34:22;10.85;;;5.50;;
55718;SDS011;41623;46.104;19.656;2023-01-26T16:36:49;11.07;;;5.55;;
55718;SDS011;41623;46.104;19.656;2023-01-26T16:39:15;17.52;;;7.30;;
55718;SDS011;41623;46.104;19.656;2023-01-26T16:41:41;15.18;;;6.78;;
55718;SDS011;41623;46.104;19.656;2023-01-26T16:44:11;23.98;;;7.80;;
55718;SDS011;41623;46.104;19.656;2023-01-26T16:46:38;28.00;;;9.05;;